sensor_id;sensor_type;location;lat;lon;timestamp;P1;durP1;ratioP1;P2;durP2;ratioP2
58874;SDS011;44652;49.040;12.126;2022-09-28T04:59:35;7.22;;;5.45;;
58874;SDS011;44652;49.040;12.126;2022-09-28T05:02:03;6.95;;;5.28;;
58874;SDS011;44652;49.040;12.126;2022-09-28T05:04:53;8.75;;;5.60;;
58874;SDS011;44652;49.040;12.126;2022-09-28T05:07:37;7.75;;;5.65;;
58874;SDS011;44652;49.040;12.126;2022-09-28T05:10:15;6.97;;;5.43;;
58874;SDS011;44652;49.040;12.126;2022-09-28T05:12:45;7.03;;;5.55;;
58874;SDS011;44652;49.040;12.126;2022-09-28T05:15:12;8.48;;;5.22;;
58874;SDS011;44652;49.040;12.126;2022-09-28T05:32:00;11.68;;;7.50;;
58874;SDS011;44652;49.040;12.126;2022-09-28T05:34:47;12.48;;;8.77;;
58874;SDS011;44652;49.040;12.126;2022-09-28T05:42:38;10.38;;;7.75;;
58874;SDS011;44652;49.040;12.126;2022-09-28T05:53:54;10.57;;;7.45;;
58874;SDS011;44652;49.040;12.126;2022-09-28T05:56:23;11.50;;;6.85;;
58874;SDS011;44652;49.040;12.126;2022-09-28T05:58:51;9.00;;;5.68;;
58874;SDS011;44652;49.040;12.126;2022-09-28T06:01:20;9.85;;;6.82;;
58874;SDS011;44652;49.040;12.126;2022-09-28T06:08:07;9.23;;;6.60;;
58874;SDS011;44652;49.040;12.126;2022-09-28T06:23:07;7.82;;;3.88;;
58874;SDS011;44652;49.040;12.126;2022-09-28T06:25:38;11.52;;;4.40;;
58874;SDS011;44652;49.040;12.126;2022-09-28T06:36:51;8.05;;;2.50;;
58874;SDS011;44652;49.040;12.126;2022-09-28T06:50:50;4.20;;;2.67;;
58874;SDS011;44652;49.040;12.126;2022-09-28T06:53:46;9.27;;;3.30;;
58874;SDS011;44652;49.040;12.126;2022-09-28T06:56:29;6.88;;;3.50;;
58874;SDS011;44652;49.040;12.126;2022-09-28T07:03:23;4.72;;;2.47;;
58874;SDS011;44652;49.040;12.126;2022-09-28T07:10:49;7.70;;;2.10;;
58874;SDS011;44652;49.040;12.126;2022-09-28T07:13:39;2.30;;;1.15;;
58874;SDS011;44652;49.040;12.126;2022-09-28T07:16:21;4.75;;;1.30;;
58874;SDS011;44652;49.040;12.126;2022-09-28T07:18:55;2.58;;;1.15;;
58874;SDS011;44652;49.040;12.126;2022-09-28T07:25:46;4.03;;;1.48;;
58874;SDS011;44652;49.040;12.126;2022-09-28T07:28:31;3.53;;;1.02;;
58874;SDS011;44652;49.040;12.126;2022-09-28T07:31:28;2.53;;;1.08;;
58874;SDS011;44652;49.040;12.126;2022-09-28T07:34:24;2.50;;;1.10;;
58874;SDS011;44652;49.040;12.126;2022-09-28T07:37:11;2.55;;;1.17;;
58874;SDS011;44652;49.040;12.126;2022-09-28T07:47:06;3.38;;;1.40;;
58874;SDS011;44652;49.040;12.126;2022-09-28T07:49:59;3.33;;;1.17;;
58874;SDS011;44652;49.040;12.126;2022-09-28T07:57:03;2.78;;;1.10;;
58874;SDS011;44652;49.040;12.126;2022-09-28T07:59:58;3.13;;;1.23;;
58874;SDS011;44652;49.040;12.126;2022-09-28T08:02:43;3.03;;;1.40;;
58874;SDS011;44652;49.040;12.126;2022-09-28T08:09:34;3.10;;;1.10;;
58874;SDS011;44652;49.040;12.126;2022-09-28T08:12:21;2.30;;;1.02;;
58874;SDS011;44652;49.040;12.126;2022-09-28T08:15:26;2.47;;;1.30;;
58874;SDS011;44652;49.040;12.126;2022-09-28T08:18:10;2.05;;;1.17;;
58874;SDS011;44652;49.040;12.126;2022-09-28T08:25:02;2.83;;;1.52;;
58874;SDS011;44652;49.040;12.126;2022-09-28T08:28:24;4.75;;;1.35;;
58874;SDS011;44652;49.040;12.126;2022-09-28T08:36:07;3.35;;;1.50;;
58874;SDS011;44652;49.040;12.126;2022-09-28T08:38:50;2.22;;;1.20;;
58874;SDS011;44652;49.040;12.126;2022-09-28T08:42:11;4.75;;;1.80;;
58874;SDS011;44652;49.040;12.126;2022-09-28T08:45:07;3.85;;;1.50;;
58874;SDS011;44652;49.040;12.126;2022-09-28T08:48:07;4.45;;;1.65;;
58874;SDS011;44652;49.040;12.126;2022-09-28T08:51:16;2.72;;;1.30;;
58874;SDS011;44652;49.040;12.126;2022-09-28T08:58:19;4.22;;;1.60;;
58874;SDS011;44652;49.040;12.126;2022-09-28T09:00:51;2.78;;;1.30;;
58874;SDS011;44652;49.040;12.126;2022-09-28T09:24:01;2.55;;;0.90;;
58874;SDS011;44652;49.040;12.126;2022-09-28T09:26:43;4.22;;;1.25;;
58874;SDS011;44652;49.040;12.126;2022-09-28T10:05:44;4.25;;;1.05;;
58874;SDS011;44652;49.040;12.126;2022-09-28T10:08:39;3.42;;;0.80;;
58874;SDS011;44652;49.040;12.126;2022-09-28T10:11:26;2.55;;;1.13;;
58874;SDS011;44652;49.040;12.126;2022-09-28T10:39:52;3.03;;;1.10;;
58874;SDS011;44652;49.040;12.126;2022-09-28T10:51:56;2.53;;;0.98;;
58874;SDS011;44652;49.040;12.126;2022-09-28T11:06:56;2.55;;;1.08;;
58874;SDS011;44652;49.040;12.126;2022-09-28T11:31:35;5.35;;;1.27;;
58874;SDS011;44652;49.040;12.126;2022-09-28T12:08:28;6.75;;;1.20;;
58874;SDS011;44652;49.040;12.126;2022-09-28T12:11:05;2.23;;;1.10;;
58874;SDS011;44652;49.040;12.126;2022-09-28T12:14:19;3.85;;;1.45;;
58874;SDS011;44652;49.040;12.126;2022-09-28T12:17:06;6.85;;;2.00;;
58874;SDS011;44652;49.040;12.126;2022-09-28T12:20:00;4.72;;;1.20;;
58874;SDS011;44652;49.040;12.126;2022-09-28T12:23:04;9.07;;;1.52;;
58874;SDS011;44652;49.040;12.126;2022-09-28T12:30:04;1.50;;;0.80;;
58874;SDS011;44652;49.040;12.126;2022-09-28T12:48:34;2.60;;;1.00;;
58874;SDS011;44652;49.040;12.126;2022-09-28T13:13:09;4.32;;;1.80;;
58874;SDS011;44652;49.040;12.126;2022-09-28T13:32:35;3.65;;;1.70;;
58874;SDS011;44652;49.040;12.126;2022-09-28T13:40:01;6.25;;;1.50;;
58874;SDS011;44652;49.040;12.126;2022-09-28T13:52:51;4.10;;;1.00;;
58874;SDS011;44652;49.040;12.126;2022-09-28T14:06:53;3.20;;;1.30;;
58874;SDS011;44652;49.040;12.126;2022-09-28T14:16:29;4.70;;;1.63;;
58874;SDS011;44652;49.040;12.126;2022-09-28T14:18:59;5.03;;;1.60;;
58874;SDS011;44652;49.040;12.126;2022-09-28T14:32:36;3.13;;;1.42;;
58874;SDS011;44652;49.040;12.126;2022-09-28T14:35:26;2.88;;;1.17;;
58874;SDS011;44652;49.040;12.126;2022-09-28T14:37:56;2.67;;;1.10;;
58874;SDS011;44652;49.040;12.126;2022-09-28T14:46:26;3.05;;;1.40;;
58874;SDS011;44652;49.040;12.126;2022-09-28T14:48:56;4.63;;;1.70;;
58874;SDS011;44652;49.040;12.126;2022-09-28T14:53:57;3.08;;;1.20;;
58874;SDS011;44652;49.040;12.126;2022-09-28T14:56:29;2.25;;;1.17;;
58874;SDS011;44652;49.040;12.126;2022-09-28T14:59:04;4.45;;;1.35;;
58874;SDS011;44652;49.040;12.126;2022-09-28T15:01:32;2.85;;;1.20;;
58874;SDS011;44652;49.040;12.126;2022-09-28T15:04:01;3.25;;;1.23;;
58874;SDS011;44652;49.040;12.126;2022-09-28T15:06:48;3.83;;;1.20;;
58874;SDS011;44652;49.040;12.126;2022-09-28T15:14:59;4.28;;;1.20;;
58874;SDS011;44652;49.040;12.126;2022-09-28T15:17:35;3.80;;;1.50;;
58874;SDS011;44652;49.040;12.126;2022-09-28T15:20:19;3.20;;;1.37;;
58874;SDS011;44652;49.040;12.126;2022-09-28T15:22:53;5.47;;;1.70;;
58874;SDS011;44652;49.040;12.126;2022-09-28T15:25:26;3.58;;;1.60;;
58874;SDS011;44652;49.040;12.126;2022-09-28T15:27:55;4.32;;;1.85;;
58874;SDS011;44652;49.040;12.126;2022-09-28T15:32:58;3.75;;;1.45;;
58874;SDS011;44652;49.040;12.126;2022-09-28T15:35:58;3.10;;;1.40;;
58874;SDS011;44652;49.040;12.126;2022-09-28T15:38:31;3.97;;;1.50;;
58874;SDS011;44652;49.040;12.126;2022-09-28T15:41:01;3.70;;;1.17;;
58874;SDS011;44652;49.040;12.126;2022-09-28T15:43:31;4.35;;;1.33;;
58874;SDS011;44652;49.040;12.126;2022-09-28T15:46:09;3.88;;;1.30;;
58874;SDS011;44652;49.040;12.126;2022-09-28T15:51:18;3.53;;;1.80;;
58874;SDS011;44652;49.040;12.126;2022-09-28T15:56:50;5.15;;;2.40;;
58874;SDS011;44652;49.040;12.126;2022-09-28T15:59:24;8.63;;;3.25;;
58874;SDS011;44652;49.040;12.126;2022-09-28T16:02:02;6.40;;;4.00;;
58874;SDS011;44652;49.040;12.126;2022-09-28T16:04:48;6.68;;;3.30;;
58874;SDS011;44652;49.040;12.126;2022-09-28T16:07:32;4.75;;;2.40;;
58874;SDS011;44652;49.040;12.126;2022-09-28T16:12:40;5.25;;;2.47;;
58874;SDS011;44652;49.040;12.126;2022-09-28T16:15:14;4.45;;;2.30;;
58874;SDS011;44652;49.040;12.126;2022-09-28T16:17:54;6.53;;;2.40;;
58874;SDS011;44652;49.040;12.126;2022-09-28T16:20:27;8.27;;;2.60;;
58874;SDS011;44652;49.040;12.126;2022-09-28T16:23:07;5.18;;;2.40;;
58874;SDS011;44652;49.040;12.126;2022-09-28T16:25:46;6.82;;;2.88;;
58874;SDS011;44652;49.040;12.126;2022-09-28T16:33:40;6.35;;;2.63;;
58874;SDS011;44652;49.040;12.126;2022-09-28T16:36:12;5.30;;;2.47;;
58874;SDS011;44652;49.040;12.126;2022-09-28T16:38:47;4.68;;;2.00;;
58874;SDS011;44652;49.040;12.126;2022-09-28T16:41:15;10.67;;;3.07;;
58874;SDS011;44652;49.040;12.126;2022-09-28T16:43:44;5.72;;;3.10;;
58874;SDS011;44652;49.040;12.126;2022-09-28T16:46:13;6.30;;;2.47;;
58874;SDS011;44652;49.040;12.126;2022-09-28T16:48:46;5.00;;;2.60;;
58874;SDS011;44652;49.040;12.126;2022-09-28T16:51:15;6.90;;;2.75;;
58874;SDS011;44652;49.040;12.126;2022-09-28T16:53:46;41.30;;;16.42;;
58874;SDS011;44652;49.040;12.126;2022-09-28T16:56:32;23.52;;;9.82;;
58874;SDS011;44652;49.040;12.126;2022-09-28T16:59:01;9.48;;;5.63;;
58874;SDS011;44652;49.040;12.126;2022-09-28T17:01:28;10.83;;;6.37;;
58874;SDS011;44652;49.040;12.126;2022-09-28T17:03:56;9.13;;;6.38;;
58874;SDS011;44652;49.040;12.126;2022-09-28T17:06:23;8.52;;;5.90;;
58874;SDS011;44652;49.040;12.126;2022-09-28T17:08:50;10.52;;;6.22;;
58874;SDS011;44652;49.040;12.126;2022-09-28T17:11:20;7.55;;;5.38;;
58874;SDS011;44652;49.040;12.126;2022-09-28T17:13:50;9.63;;;6.50;;
58874;SDS011;44652;49.040;12.126;2022-09-28T17:16:20;12.27;;;7.32;;
58874;SDS011;44652;49.040;12.126;2022-09-28T17:19:18;12.55;;;7.40;;
58874;SDS011;44652;49.040;12.126;2022-09-28T17:21:46;9.18;;;6.30;;
58874;SDS011;44652;49.040;12.126;2022-09-28T17:24:13;9.90;;;6.82;;
58874;SDS011;44652;49.040;12.126;2022-09-28T17:26:40;9.77;;;7.20;;
58874;SDS011;44652;49.040;12.126;2022-09-28T17:29:11;10.90;;;7.15;;
58874;SDS011;44652;49.040;12.126;2022-09-28T17:31:40;10.50;;;6.60;;
58874;SDS011;44652;49.040;12.126;2022-09-28T17:34:13;9.07;;;6.32;;
58874;SDS011;44652;49.040;12.126;2022-09-28T17:36:43;11.65;;;7.35;;
58874;SDS011;44652;49.040;12.126;2022-09-28T17:39:13;10.68;;;6.13;;
58874;SDS011;44652;49.040;12.126;2022-09-28T17:41:42;11.43;;;6.45;;
58874;SDS011;44652;49.040;12.126;2022-09-28T17:48:21;8.50;;;5.60;;
58874;SDS011;44652;49.040;12.126;2022-09-28T17:50:49;7.70;;;5.45;;
58874;SDS011;44652;49.040;12.126;2022-09-28T17:53:16;10.93;;;6.85;;
58874;SDS011;44652;49.040;12.126;2022-09-28T17:55:45;11.45;;;7.53;;
58874;SDS011;44652;49.040;12.126;2022-09-28T17:58:35;12.70;;;7.60;;
58874;SDS011;44652;49.040;12.126;2022-09-28T18:09:45;18.35;;;12.85;;
58874;SDS011;44652;49.040;12.126;2022-09-28T18:12:11;14.75;;;11.57;;
58874;SDS011;44652;49.040;12.126;2022-09-28T18:14:38;15.70;;;10.82;;
58874;SDS011;44652;49.040;12.126;2022-09-28T18:17:05;16.48;;;10.80;;
58874;SDS011;44652;49.040;12.126;2022-09-28T18:19:31;15.38;;;10.43;;
58874;SDS011;44652;49.040;12.126;2022-09-28T18:21:58;11.60;;;8.65;;
58874;SDS011;44652;49.040;12.126;2022-09-28T18:24:26;10.50;;;7.80;;
58874;SDS011;44652;49.040;12.126;2022-09-28T18:26:53;11.43;;;7.07;;
58874;SDS011;44652;49.040;12.126;2022-09-28T18:29:19;10.32;;;7.30;;
58874;SDS011;44652;49.040;12.126;2022-09-28T18:31:46;10.18;;;7.40;;
58874;SDS011;44652;49.040;12.126;2022-09-28T18:34:14;13.23;;;8.07;;
58874;SDS011;44652;49.040;12.126;2022-09-28T18:36:40;10.50;;;6.65;;
58874;SDS011;44652;49.040;12.126;2022-09-28T18:39:07;10.30;;;6.00;;
58874;SDS011;44652;49.040;12.126;2022-09-28T18:41:33;10.23;;;6.25;;
58874;SDS011;44652;49.040;12.126;2022-09-28T18:44:00;13.88;;;6.18;;
58874;SDS011;44652;49.040;12.126;2022-09-28T18:46:27;9.70;;;6.25;;
58874;SDS011;44652;49.040;12.126;2022-09-28T18:48:56;11.73;;;6.05;;
58874;SDS011;44652;49.040;12.126;2022-09-28T18:51:23;12.07;;;7.28;;
58874;SDS011;44652;49.040;12.126;2022-09-28T18:53:49;10.32;;;6.70;;
58874;SDS011;44652;49.040;12.126;2022-09-28T18:56:16;10.50;;;7.18;;
58874;SDS011;44652;49.040;12.126;2022-09-28T18:58:44;10.30;;;7.95;;
58874;SDS011;44652;49.040;12.126;2022-09-28T19:01:13;11.30;;;7.40;;
58874;SDS011;44652;49.040;12.126;2022-09-28T19:03:58;14.10;;;7.90;;
58874;SDS011;44652;49.040;12.126;2022-09-28T19:06:26;16.92;;;7.40;;
58874;SDS011;44652;49.040;12.126;2022-09-28T19:08:54;12.55;;;8.30;;
58874;SDS011;44652;49.040;12.126;2022-09-28T19:11:21;12.00;;;7.93;;
58874;SDS011;44652;49.040;12.126;2022-09-28T19:13:49;15.48;;;10.52;;
58874;SDS011;44652;49.040;12.126;2022-09-28T19:16:18;16.83;;;10.88;;
58874;SDS011;44652;49.040;12.126;2022-09-28T19:18:47;15.70;;;10.50;;
58874;SDS011;44652;49.040;12.126;2022-09-28T19:21:14;14.75;;;10.40;;
58874;SDS011;44652;49.040;12.126;2022-09-28T19:23:42;21.52;;;14.05;;
58874;SDS011;44652;49.040;12.126;2022-09-28T19:26:19;17.45;;;11.65;;
58874;SDS011;44652;49.040;12.126;2022-09-28T19:28:47;14.57;;;10.27;;
58874;SDS011;44652;49.040;12.126;2022-09-28T19:31:15;13.43;;;9.32;;
58874;SDS011;44652;49.040;12.126;2022-09-28T19:33:42;12.23;;;8.18;;
58874;SDS011;44652;49.040;12.126;2022-09-28T19:36:13;10.13;;;7.13;;
58874;SDS011;44652;49.040;12.126;2022-09-28T19:38:43;17.85;;;11.50;;
58874;SDS011;44652;49.040;12.126;2022-09-28T19:41:12;10.60;;;7.75;;
58874;SDS011;44652;49.040;12.126;2022-09-28T19:44:07;8.75;;;5.05;;
58874;SDS011;44652;49.040;12.126;2022-09-28T19:46:37;8.80;;;5.35;;
58874;SDS011;44652;49.040;12.126;2022-09-28T19:49:07;8.68;;;5.60;;
58874;SDS011;44652;49.040;12.126;2022-09-28T19:51:36;7.85;;;5.15;;
58874;SDS011;44652;49.040;12.126;2022-09-28T19:54:23;7.85;;;4.75;;
58874;SDS011;44652;49.040;12.126;2022-09-28T19:56:59;8.85;;;5.38;;
58874;SDS011;44652;49.040;12.126;2022-09-28T19:59:26;11.65;;;4.93;;
58874;SDS011;44652;49.040;12.126;2022-09-28T20:01:53;7.18;;;4.68;;
58874;SDS011;44652;49.040;12.126;2022-09-28T20:04:22;8.48;;;4.80;;
58874;SDS011;44652;49.040;12.126;2022-09-28T20:06:49;7.15;;;4.82;;
58874;SDS011;44652;49.040;12.126;2022-09-28T20:09:18;7.80;;;4.85;;
58874;SDS011;44652;49.040;12.126;2022-09-28T20:11:45;7.45;;;4.55;;
58874;SDS011;44652;49.040;12.126;2022-09-28T20:14:12;6.22;;;4.10;;
58874;SDS011;44652;49.040;12.126;2022-09-28T20:16:44;7.38;;;4.38;;
58874;SDS011;44652;49.040;12.126;2022-09-28T20:19:13;8.75;;;7.85;;
58874;SDS011;44652;49.040;12.126;2022-09-28T20:21:41;8.82;;;4.90;;
58874;SDS011;44652;49.040;12.126;2022-09-28T20:24:09;8.40;;;4.80;;
58874;SDS011;44652;49.040;12.126;2022-09-28T20:26:36;6.35;;;4.22;;
58874;SDS011;44652;49.040;12.126;2022-09-28T20:29:04;7.47;;;4.00;;
58874;SDS011;44652;49.040;12.126;2022-09-28T20:31:33;7.38;;;3.90;;
58874;SDS011;44652;49.040;12.126;2022-09-28T20:34:04;7.70;;;4.00;;
58874;SDS011;44652;49.040;12.126;2022-09-28T20:36:32;7.15;;;4.05;;
58874;SDS011;44652;49.040;12.126;2022-09-28T20:38:59;5.63;;;3.70;;
58874;SDS011;44652;49.040;12.126;2022-09-28T20:41:27;6.57;;;3.63;;
58874;SDS011;44652;49.040;12.126;2022-09-28T20:44:03;7.47;;;4.20;;
58874;SDS011;44652;49.040;12.126;2022-09-28T20:46:33;7.70;;;4.25;;
58874;SDS011;44652;49.040;12.126;2022-09-28T20:49:06;6.57;;;3.80;;
58874;SDS011;44652;49.040;12.126;2022-09-28T20:51:33;6.10;;;3.92;;
58874;SDS011;44652;49.040;12.126;2022-09-28T20:54:01;8.02;;;3.90;;
58874;SDS011;44652;49.040;12.126;2022-09-28T20:56:31;5.95;;;3.83;;
58874;SDS011;44652;49.040;12.126;2022-09-28T20:59:06;7.10;;;4.07;;
58874;SDS011;44652;49.040;12.126;2022-09-28T21:01:34;6.32;;;4.00;;
58874;SDS011;44652;49.040;12.126;2022-09-28T21:04:02;7.07;;;4.20;;
58874;SDS011;44652;49.040;12.126;2022-09-28T21:06:34;7.97;;;4.05;;
